createdAt,value
2018-08-09T00:00:03.345Z,15.83
2018-08-09T00:02:32.173Z,18.00
2018-08-09T00:05:00.784Z,18.12
2018-08-09T00:07:29.540Z,19.17
2018-08-09T00:09:57.987Z,19.23
2018-08-09T00:12:26.937Z,19.50
2018-08-09T00:14:55.632Z,20.33
2018-08-09T00:17:23.944Z,19.63
2018-08-09T00:19:52.429Z,19.07
2018-08-09T00:22:20.882Z,19.57
2018-08-09T00:24:49.409Z,18.17
2018-08-09T00:27:17.856Z,19.05
2018-08-09T00:29:45.972Z,19.37
2018-08-09T00:32:14.841Z,18.10
2018-08-09T00:34:43.587Z,16.80
2018-08-09T00:37:12.380Z,16.83
2018-08-09T00:39:41.393Z,16.62
2018-08-09T00:42:10.170Z,17.50
2018-08-09T00:44:39.085Z,18.82
2018-08-09T00:47:07.937Z,19.83
2018-08-09T00:49:36.385Z,19.40
2018-08-09T00:52:05.381Z,20.10
2018-08-09T00:54:33.525Z,19.73
2018-08-09T00:57:02.328Z,18.20
2018-08-09T00:59:31.020Z,18.95
2018-08-09T01:01:59.505Z,18.70
2018-08-09T01:04:27.923Z,19.45
2018-08-09T01:06:56.376Z,20.90
2018-08-09T01:09:24.833Z,20.43
2018-08-09T01:11:53.244Z,18.50
2018-08-09T01:14:21.730Z,19.17
2018-08-09T01:16:50.488Z,17.33
2018-08-09T01:19:18.932Z,18.60
2018-08-09T01:21:47.385Z,18.47
2018-08-09T01:24:15.877Z,19.63
2018-08-09T01:26:43.988Z,17.87
2018-08-09T01:29:12.149Z,18.10
2018-08-09T01:31:40.976Z,19.73
2018-08-09T01:34:10.304Z,20.10
2018-08-09T01:36:38.968Z,18.47
2018-08-09T01:39:10.234Z,19.83
2018-08-09T01:41:38.679Z,19.70
2018-08-09T01:44:08.001Z,19.03
2018-08-09T01:46:36.816Z,21.25
2018-08-09T01:49:05.118Z,19.30
2018-08-09T01:51:40.196Z,19.43
2018-08-09T01:54:08.648Z,19.37
2018-08-09T01:56:37.173Z,19.05
2018-08-09T01:59:05.309Z,21.30
2018-08-09T02:01:33.772Z,20.07
2018-08-09T02:04:02.875Z,20.73
2018-08-09T02:06:31.630Z,21.23
2018-08-09T02:09:05.040Z,25.13
2018-08-09T02:11:34.033Z,19.17
2018-08-09T02:14:02.657Z,21.10
2018-08-09T02:16:31.403Z,18.55
2018-08-09T02:18:59.968Z,21.70
2018-08-09T02:21:28.461Z,22.43
2018-08-09T02:23:56.594Z,22.63
2018-08-09T02:26:26.492Z,23.22
2018-08-09T02:28:54.964Z,22.43
2018-08-09T02:31:23.283Z,22.47
2018-08-09T02:33:57.053Z,22.20
2018-08-09T02:36:26.837Z,21.23
2018-08-09T02:38:55.581Z,21.68
2018-08-09T02:41:24.032Z,20.67
2018-08-09T02:43:52.320Z,21.20
2018-08-09T02:46:20.460Z,21.30
2018-08-09T02:48:49.021Z,23.70
2018-08-09T02:51:17.764Z,22.93
2018-08-09T02:53:46.562Z,23.40
2018-08-09T02:56:15.020Z,25.17
2018-08-09T02:58:43.604Z,22.87
2018-08-09T03:01:11.747Z,20.33
2018-08-09T03:03:40.585Z,20.85
2018-08-09T03:06:09.070Z,21.27
2018-08-09T03:08:37.481Z,22.30
2018-08-09T03:11:06.134Z,21.90
2018-08-09T03:13:34.552Z,20.60
2018-08-09T03:16:02.698Z,20.43
2018-08-09T03:18:31.515Z,22.37
2018-08-09T03:20:59.992Z,21.77
2018-08-09T03:23:28.406Z,22.63
2018-08-09T03:25:56.541Z,21.70
2018-08-09T03:28:24.680Z,21.47
2018-08-09T03:30:53.436Z,21.77
2018-08-09T03:33:21.904Z,21.43
2018-08-09T03:35:50.660Z,21.37
2018-08-09T03:38:19.410Z,22.30
2018-08-09T03:40:47.877Z,23.53
2018-08-09T03:43:16.617Z,23.80
2018-08-09T03:45:45.078Z,23.70
2018-08-09T03:48:13.978Z,26.47
2018-08-09T03:50:42.744Z,23.50
2018-08-09T03:53:11.200Z,23.33
2018-08-09T03:55:39.957Z,22.55
2018-08-09T03:58:08.525Z,22.07
2018-08-09T04:00:43.141Z,21.45
2018-08-09T04:03:11.920Z,23.17
2018-08-09T04:05:40.385Z,23.53
2018-08-09T04:08:09.101Z,22.80
2018-08-09T04:10:37.848Z,22.48
2018-08-09T04:13:06.508Z,23.27
2018-08-09T04:15:35.169Z,23.00
2018-08-09T04:18:03.573Z,24.23
2018-08-09T04:20:32.240Z,24.20
2018-08-09T04:23:01.104Z,23.10
2018-08-09T04:25:29.869Z,23.97
2018-08-09T04:27:58.482Z,25.13
2018-08-09T04:30:26.916Z,23.93
2018-08-09T04:32:55.404Z,23.50
2018-08-09T04:35:23.792Z,24.73
2018-08-09T04:37:52.289Z,23.63
2018-08-09T04:40:20.629Z,25.70
2018-08-09T04:42:49.086Z,25.50
2018-08-09T04:45:17.575Z,26.43
2018-08-09T04:47:45.744Z,25.73
2018-08-09T04:50:14.221Z,29.07
2018-08-09T04:52:43.041Z,25.25
2018-08-09T04:55:11.534Z,26.67
2018-08-09T04:57:40.168Z,27.47
2018-08-09T05:00:08.398Z,24.57
2018-08-09T05:02:37.070Z,25.37
2018-08-09T05:05:05.224Z,24.13
2018-08-09T05:07:33.621Z,25.85
2018-08-09T05:12:42.080Z,27.27
2018-08-09T05:15:11.676Z,29.33
2018-08-09T05:17:40.224Z,27.37
2018-08-09T05:20:08.655Z,27.55
2018-08-09T05:22:37.095Z,25.30
2018-08-09T05:25:05.924Z,27.83
2018-08-09T05:27:34.918Z,28.33
2018-08-09T05:30:03.617Z,28.50
2018-08-09T05:32:31.929Z,27.67
2018-08-09T05:35:00.054Z,26.40
2018-08-09T05:37:28.752Z,27.73
2018-08-09T05:39:57.204Z,27.70
2018-08-09T05:42:25.328Z,29.37
2018-08-09T05:44:53.724Z,29.75
2018-08-09T05:47:22.237Z,27.67
2018-08-09T05:49:50.939Z,27.70
2018-08-09T05:52:19.446Z,28.80
2018-08-09T05:54:47.689Z,27.70
2018-08-09T05:57:16.106Z,28.17
2018-08-09T05:59:44.236Z,28.20
2018-08-09T06:02:12.704Z,27.20
2018-08-09T06:04:41.107Z,30.87
2018-08-09T06:07:09.328Z,30.80
2018-08-09T06:09:38.410Z,29.52
2018-08-09T06:12:06.862Z,30.27
2018-08-09T06:14:35.105Z,28.97
2018-08-09T06:17:03.261Z,29.33
2018-08-09T06:19:31.857Z,29.50
2018-08-09T06:22:00.386Z,28.23
2018-08-09T06:24:29.724Z,27.02
2018-08-09T06:26:58.292Z,29.40
2018-08-09T06:29:27.418Z,28.98
2018-08-09T06:31:56.148Z,28.60
2018-08-09T06:34:24.761Z,25.20
2018-08-09T06:36:53.474Z,28.20
2018-08-09T06:39:21.975Z,27.75
2018-08-09T06:41:50.132Z,26.83
2018-08-09T06:44:18.584Z,25.20
2018-08-09T06:46:47.418Z,26.40
2018-08-09T06:49:15.873Z,27.47
2018-08-09T06:51:44.519Z,28.20
2018-08-09T06:54:12.673Z,28.00
2018-08-09T06:56:41.089Z,26.93
2018-08-09T06:59:10.213Z,25.50
2018-08-09T07:01:38.403Z,24.47
2018-08-09T07:04:07.149Z,26.20
2018-08-09T07:06:35.612Z,26.02
2018-08-09T07:09:06.641Z,27.03
2018-08-09T07:11:35.084Z,24.55
2018-08-09T07:14:03.241Z,25.13
2018-08-09T07:16:31.704Z,26.13
2018-08-09T07:18:59.957Z,24.40
2018-08-09T07:21:28.684Z,22.83
2018-08-09T07:23:57.637Z,24.53
2018-08-09T07:26:27.475Z,23.57
2018-08-09T07:28:56.032Z,23.17
2018-08-09T07:31:24.492Z,24.13
2018-08-09T07:33:52.990Z,25.57
2018-08-09T07:36:21.625Z,21.37
2018-08-09T07:38:50.072Z,19.70
2018-08-09T07:41:18.452Z,23.27
2018-08-09T07:43:46.601Z,21.80
2018-08-09T07:46:15.053Z,23.17
2018-08-09T07:48:43.536Z,20.33
2018-08-09T07:51:12.122Z,23.62
2018-08-09T07:53:40.609Z,23.80
2018-08-09T07:56:17.305Z,21.20
2018-08-09T07:58:45.874Z,21.53
2018-08-09T08:01:14.682Z,20.80
2018-08-09T08:03:43.341Z,18.67
2018-08-09T08:06:11.494Z,20.00
2018-08-09T08:08:40.185Z,19.30
2018-08-09T08:11:08.876Z,19.80
2018-08-09T08:13:37.654Z,18.57
2018-08-09T08:16:06.020Z,18.50
2018-08-09T08:18:34.672Z,19.70
2018-08-09T08:21:03.454Z,17.93
2018-08-09T08:23:32.086Z,17.23
2018-08-09T08:26:00.536Z,18.93
2018-08-09T08:28:29.841Z,16.55
2018-08-09T08:30:58.232Z,16.73
2018-08-09T08:33:27.853Z,16.90
2018-08-09T08:36:02.321Z,16.60
2018-08-09T08:38:30.532Z,15.03
2018-08-09T08:40:58.980Z,16.60
2018-08-09T08:43:27.532Z,17.60
2018-08-09T08:45:56.585Z,18.50
2018-08-09T08:48:24.713Z,18.77
2018-08-09T08:50:53.125Z,19.70
2018-08-09T08:53:21.554Z,19.07
2018-08-09T08:55:49.824Z,18.33
2018-08-09T08:58:18.256Z,20.03
2018-08-09T09:00:46.391Z,21.10
2018-08-09T09:03:15.178Z,20.60
2018-08-09T09:05:43.760Z,21.10
2018-08-09T09:08:12.243Z,20.33
2018-08-09T09:10:40.793Z,20.63
2018-08-09T09:13:09.501Z,20.10
2018-08-09T09:15:37.615Z,19.92
2018-08-09T09:18:06.279Z,20.13
2018-08-09T09:20:34.861Z,20.20
2018-08-09T09:23:03.846Z,19.90
2018-08-09T09:25:33.188Z,21.45
2018-08-09T09:28:01.668Z,20.70
2018-08-09T09:30:30.320Z,21.30
2018-08-09T09:32:58.452Z,23.07
2018-08-09T09:35:28.070Z,22.07
2018-08-09T09:37:56.228Z,22.50
2018-08-09T09:40:24.346Z,22.00
2018-08-09T09:42:52.660Z,24.73
2018-08-09T09:45:21.113Z,22.57
2018-08-09T09:47:49.403Z,22.30
2018-08-09T09:50:17.762Z,22.87
2018-08-09T09:52:45.891Z,23.77
2018-08-09T09:55:14.673Z,25.20
2018-08-09T09:57:42.800Z,23.50
2018-08-09T10:00:16.384Z,26.47
2018-08-09T10:02:45.608Z,25.47
2018-08-09T10:05:14.284Z,26.10
2018-08-09T10:07:43.027Z,27.17
2018-08-09T10:10:12.473Z,26.87
2018-08-09T10:12:42.468Z,27.03
2018-08-09T10:15:10.798Z,27.63
2018-08-09T10:17:39.252Z,27.27
2018-08-09T10:20:08.154Z,28.10
2018-08-09T10:22:36.884Z,26.77
2018-08-09T10:25:05.808Z,25.27
2018-08-09T10:27:34.266Z,27.48
2018-08-09T10:32:36.592Z,27.90
2018-08-09T10:35:04.720Z,29.47
2018-08-09T10:37:33.419Z,31.60
2018-08-09T10:40:01.864Z,30.13
2018-08-09T10:42:30.226Z,31.63
2018-08-09T10:44:59.253Z,30.77
2018-08-09T10:47:27.816Z,33.30
2018-08-09T10:49:56.516Z,36.60
2018-08-09T10:52:24.698Z,34.00
2018-08-09T10:54:53.190Z,35.17
2018-08-09T10:57:22.445Z,36.63
2018-08-09T10:59:50.795Z,38.27
2018-08-09T11:02:18.978Z,36.07
2018-08-09T11:04:47.108Z,36.43
2018-08-09T11:07:15.875Z,35.00
2018-08-09T11:09:44.277Z,31.67
2018-08-09T11:12:13.081Z,34.60
2018-08-09T11:14:41.556Z,30.90
2018-08-09T11:17:09.672Z,31.47
2018-08-09T11:19:37.811Z,29.33
2018-08-09T11:22:06.644Z,32.00
2018-08-09T11:24:35.077Z,31.17
2018-08-09T11:27:03.881Z,31.60
2018-08-09T11:29:34.306Z,30.37
2018-08-09T11:32:02.734Z,29.77
2018-08-09T11:34:30.861Z,31.83
2018-08-09T11:36:59.212Z,30.07
2018-08-09T11:39:28.008Z,32.13
2018-08-09T11:41:56.452Z,31.17
2018-08-09T11:44:25.030Z,30.53
2018-08-09T11:46:53.177Z,30.17
2018-08-09T11:49:22.202Z,29.60
2018-08-09T11:51:51.552Z,23.83
2018-08-09T11:54:20.168Z,28.30
2018-08-09T11:56:48.565Z,28.80
2018-08-09T11:59:16.865Z,27.40
2018-08-09T12:01:45.200Z,26.03
2018-08-09T12:04:14.025Z,27.63
2018-08-09T12:06:42.537Z,23.10
2018-08-09T12:09:12.029Z,24.63
2018-08-09T12:11:40.299Z,24.33
2018-08-09T12:14:09.106Z,24.87
2018-08-09T12:16:37.990Z,24.00
2018-08-09T12:19:07.103Z,22.07
2018-08-09T12:21:36.394Z,23.15
2018-08-09T12:24:04.804Z,22.93
2018-08-09T12:26:33.099Z,20.40
2018-08-09T12:29:01.564Z,20.00
2018-08-09T12:31:30.001Z,20.60
2018-08-09T12:33:58.116Z,21.53
2018-08-09T12:37:31.344Z,21.63
2018-08-09T12:39:59.723Z,21.40
2018-08-09T12:42:27.864Z,18.40
2018-08-09T12:44:55.996Z,20.50
2018-08-09T12:47:24.463Z,19.70
2018-08-09T12:49:53.197Z,21.23
2018-08-09T12:52:21.357Z,21.50
2018-08-09T12:54:49.494Z,18.90
2018-08-09T12:57:17.641Z,19.87
2018-08-09T12:59:46.009Z,16.10
2018-08-09T13:02:14.171Z,19.60
2018-08-09T13:04:42.620Z,16.57
2018-08-09T13:07:11.112Z,15.97
2018-08-09T13:09:39.241Z,15.63
2018-08-09T13:12:07.609Z,16.23
2018-08-09T13:14:35.980Z,16.70
2018-08-09T13:17:04.174Z,15.77
2018-08-09T13:19:32.309Z,16.30
2018-08-09T13:22:00.671Z,12.73
2018-08-09T13:24:28.806Z,15.90
2018-08-09T13:26:57.221Z,15.70
2018-08-09T13:29:25.685Z,15.10
2018-08-09T13:31:53.836Z,13.60
2018-08-09T13:34:22.321Z,14.23
2018-08-09T13:36:50.461Z,15.30
2018-08-09T13:39:18.600Z,12.93
2018-08-09T13:41:46.985Z,14.43
2018-08-09T13:44:15.370Z,13.77
2018-08-09T13:46:43.540Z,13.63
2018-08-09T13:49:12.109Z,12.90
2018-08-09T13:51:40.267Z,12.20
2018-08-09T13:54:08.681Z,12.77
2018-08-09T13:56:36.832Z,12.90
2018-08-09T13:59:05.002Z,11.20
2018-08-09T14:01:33.241Z,12.37
2018-08-09T14:04:02.008Z,10.03
2018-08-09T14:06:31.007Z,12.03
2018-08-09T14:08:59.496Z,11.53
2018-08-09T14:11:27.940Z,12.07
2018-08-09T14:13:56.416Z,12.83
2018-08-09T14:16:24.561Z,12.27
2018-08-09T14:18:53.249Z,11.20
2018-08-09T14:21:21.377Z,12.17
2018-08-09T14:23:49.717Z,12.10
2018-08-09T14:26:18.434Z,12.33
2018-08-09T14:28:47.118Z,12.23
2018-08-09T14:31:15.272Z,12.00
2018-08-09T14:33:43.394Z,9.27
2018-08-09T14:36:11.884Z,12.43
2018-08-09T14:38:40.626Z,11.73
2018-08-09T14:41:09.149Z,11.77
2018-08-09T14:43:37.276Z,10.43
2018-08-09T14:46:05.501Z,12.20
2018-08-09T14:48:34.209Z,15.47
2018-08-09T14:51:02.541Z,11.27
2018-08-09T14:53:31.021Z,11.37
2018-08-09T14:55:59.404Z,11.47
2018-08-09T14:58:27.796Z,10.50
2018-08-09T15:00:55.958Z,10.30
2018-08-09T15:03:24.341Z,13.13
2018-08-09T15:05:52.802Z,9.87
2018-08-09T15:08:21.281Z,11.70
2018-08-09T15:10:49.660Z,9.93
2018-08-09T15:13:18.059Z,11.27
2018-08-09T15:15:46.754Z,11.53
2018-08-09T15:18:15.121Z,11.53
2018-08-09T15:23:26.859Z,11.00
2018-08-09T15:25:55.388Z,13.70
2018-08-09T15:28:23.751Z,6.77
2018-08-09T15:30:51.892Z,5.20
2018-08-09T15:33:20.433Z,8.90
2018-08-09T15:35:48.553Z,9.30
2018-08-09T15:38:17.359Z,7.50
2018-08-09T15:40:45.904Z,15.33
2018-08-09T15:43:14.036Z,12.17
2018-08-09T15:45:42.149Z,14.63
2018-08-09T15:48:10.293Z,11.00
2018-08-09T15:50:39.072Z,16.07
2018-08-09T15:53:07.408Z,11.47
2018-08-09T15:55:35.777Z,11.23
2018-08-09T15:58:04.193Z,12.67
2018-08-09T16:00:32.668Z,14.80
2018-08-09T16:03:00.802Z,14.10
2018-08-09T16:05:29.181Z,9.93
2018-08-09T16:07:57.329Z,12.50
2018-08-09T16:10:25.684Z,9.70
2018-08-09T16:12:54.756Z,9.23
2018-08-09T16:15:23.116Z,11.43
2018-08-09T16:17:51.244Z,7.57
2018-08-09T16:20:19.367Z,12.67
2018-08-09T16:22:47.740Z,9.80
2018-08-09T16:25:17.339Z,7.20
2018-08-09T16:27:45.553Z,7.87
2018-08-09T16:30:18.875Z,8.17
2018-08-09T16:32:47.229Z,8.40
2018-08-09T16:35:15.383Z,8.03
2018-08-09T16:37:44.177Z,7.20
2018-08-09T16:40:17.060Z,9.80
2018-08-09T16:42:45.175Z,7.10
2018-08-09T16:45:14.826Z,6.40
2018-08-09T16:47:43.130Z,6.00
2018-08-09T16:50:13.356Z,5.80
2018-08-09T16:52:41.484Z,7.33
2018-08-09T16:55:11.312Z,6.50
2018-08-09T16:57:39.441Z,7.20
2018-08-09T17:00:10.171Z,6.97
2018-08-09T17:02:39.121Z,8.37
2018-08-09T17:05:11.023Z,7.63
2018-08-09T17:07:39.697Z,5.97
2018-08-09T17:10:08.833Z,11.50
2018-08-09T17:12:37.568Z,5.20
2018-08-09T17:15:08.564Z,4.47
2018-08-09T17:17:36.764Z,10.67
2018-08-09T17:20:08.032Z,6.33
2018-08-09T17:22:36.404Z,6.70
2018-08-09T17:25:04.968Z,6.67
2018-08-09T17:27:33.784Z,5.63
2018-08-09T17:30:02.144Z,6.93
2018-08-09T17:32:30.812Z,4.50
2018-08-09T17:34:58.936Z,5.70
2018-08-09T17:37:27.432Z,4.60
2018-08-09T17:39:55.760Z,6.10
2018-08-09T17:42:24.435Z,5.87
2018-08-09T17:44:52.556Z,7.50
2018-08-09T17:47:20.911Z,5.20
2018-08-09T17:49:49.432Z,4.33
2018-08-09T17:52:17.661Z,6.43
2018-08-09T17:54:46.164Z,5.87
2018-08-09T17:57:14.853Z,8.60
2018-08-09T17:59:42.967Z,5.50
2018-08-09T18:02:11.318Z,5.23
2018-08-09T18:04:39.950Z,4.37
2018-08-09T18:07:08.265Z,4.50
2018-08-09T18:09:36.989Z,4.50
2018-08-09T18:12:05.327Z,4.47
2018-08-09T18:14:33.780Z,3.77
2018-08-09T18:17:02.225Z,4.40
2018-08-09T18:19:30.693Z,6.27
2018-08-09T18:21:59.157Z,5.27
2018-08-09T18:24:27.844Z,5.30
2018-08-09T18:26:56.185Z,6.40
2018-08-09T18:29:24.525Z,5.20
2018-08-09T18:31:52.680Z,6.33
2018-08-09T18:34:21.317Z,5.20
2018-08-09T18:36:49.448Z,4.70
2018-08-09T18:39:17.567Z,4.00
2018-08-09T18:41:46.097Z,4.40
2018-08-09T18:44:14.784Z,7.30
2018-08-09T18:46:42.901Z,5.90
2018-08-09T18:49:11.592Z,4.93
2018-08-09T18:51:39.996Z,5.10
2018-08-09T18:54:08.368Z,4.80
2018-08-09T18:56:36.492Z,6.10
2018-08-09T18:59:04.840Z,5.33
2018-08-09T19:01:32.964Z,6.00
2018-08-09T19:04:01.263Z,5.00
2018-08-09T19:06:29.593Z,6.30
2018-08-09T19:08:58.279Z,4.90
2018-08-09T19:11:27.033Z,5.10
2018-08-09T19:13:55.677Z,5.17
2018-08-09T19:16:23.838Z,4.77
2018-08-09T19:18:52.272Z,5.30
2018-08-09T19:21:20.385Z,5.10
2018-08-09T19:23:48.491Z,4.80
2018-08-09T19:26:16.796Z,8.43
2018-08-09T19:28:44.896Z,5.17
2018-08-09T19:31:13.234Z,4.83
2018-08-09T19:33:41.361Z,5.50
2018-08-09T19:36:09.712Z,6.13
2018-08-09T19:38:38.001Z,5.50
2018-08-09T19:41:06.708Z,3.87
2018-08-09T19:43:35.388Z,5.57
2018-08-09T19:46:03.827Z,5.30
2018-08-09T19:48:32.585Z,4.00
2018-08-09T19:51:00.949Z,5.30
2018-08-09T19:53:29.612Z,5.23
2018-08-09T19:55:57.796Z,4.33
2018-08-09T19:58:26.460Z,4.13
2018-08-09T20:00:54.579Z,4.50
2018-08-09T20:03:22.693Z,5.30
2018-08-09T20:05:50.859Z,4.97
2018-08-09T20:08:19.539Z,4.70
2018-08-09T20:10:47.992Z,3.63
2018-08-09T20:13:16.667Z,3.30
2018-08-09T20:15:44.784Z,7.00
2018-08-09T20:18:12.887Z,3.80
2018-08-09T20:20:41.043Z,5.10
2018-08-09T20:23:09.149Z,4.37
2018-08-09T20:25:37.497Z,5.97
2018-08-09T20:28:06.028Z,4.10
2018-08-09T20:30:34.147Z,3.80
2018-08-09T20:33:02.603Z,4.10
2018-08-09T20:35:31.217Z,5.33
2018-08-09T20:37:59.535Z,4.17
2018-08-09T20:40:28.341Z,2.87
2018-08-09T20:42:56.682Z,3.57
2018-08-09T20:45:25.256Z,5.03
2018-08-09T20:47:53.683Z,5.40
2018-08-09T20:50:23.744Z,8.90
2018-08-09T20:52:52.116Z,9.20
2018-08-09T20:55:20.448Z,11.00
2018-08-09T20:57:49.493Z,10.87
2018-08-09T21:00:19.961Z,10.73
2018-08-09T21:02:49.289Z,11.13
2018-08-09T21:05:22.480Z,9.80
2018-08-09T21:07:52.057Z,8.00
2018-08-09T21:10:20.173Z,8.00
2018-08-09T21:12:48.514Z,7.53
2018-08-09T21:15:17.811Z,7.40
2018-08-09T21:17:46.371Z,8.13
2018-08-09T21:20:18.055Z,6.30
2018-08-09T21:22:47.245Z,5.87
2018-08-09T21:25:15.708Z,5.60
2018-08-09T21:27:44.998Z,5.60
2018-08-09T21:30:17.485Z,5.10
2018-08-09T21:32:46.341Z,5.30
2018-08-09T21:35:14.756Z,5.57
2018-08-09T21:37:43.751Z,4.17
2018-08-09T21:40:13.184Z,4.07
2018-08-09T21:42:41.541Z,4.47
2018-08-09T21:45:13.267Z,4.73
2018-08-09T21:47:41.771Z,4.63
2018-08-09T21:50:11.991Z,4.60
2018-08-09T21:52:40.238Z,5.50
2018-08-09T21:55:09.021Z,6.30
2018-08-09T21:57:37.180Z,5.40
2018-08-09T22:00:08.498Z,5.40
2018-08-09T22:02:36.961Z,5.30
2018-08-09T22:05:10.445Z,5.70
2018-08-09T22:07:43.988Z,5.83
2018-08-09T22:10:19.722Z,6.50
2018-08-09T22:12:53.701Z,5.90
2018-08-09T22:15:27.432Z,5.77
2018-08-09T22:18:01.272Z,6.17
2018-08-09T22:20:35.304Z,5.37
2018-08-09T22:23:03.665Z,5.17
2018-08-09T22:25:32.022Z,5.10
2018-08-09T22:28:00.325Z,5.10
2018-08-09T22:30:28.437Z,5.17
2018-08-09T22:32:56.943Z,4.60
2018-08-09T22:35:25.069Z,4.43
2018-08-09T22:37:53.533Z,4.23
2018-08-09T22:40:21.901Z,4.30
2018-08-09T22:42:50.054Z,4.20
2018-08-09T22:45:18.419Z,3.57
2018-08-09T22:47:46.812Z,3.70
2018-08-09T22:50:15.264Z,3.87
2018-08-09T22:52:43.412Z,4.27
2018-08-09T22:55:11.797Z,3.47
2018-08-09T22:57:39.926Z,3.53
2018-08-09T23:00:15.304Z,3.30
2018-08-09T23:02:43.833Z,2.90
2018-08-09T23:05:11.968Z,3.90
2018-08-09T23:07:40.297Z,3.23
2018-08-09T23:10:08.777Z,3.93
2018-08-09T23:12:37.503Z,3.77
2018-08-09T23:15:06.412Z,3.20
2018-08-09T23:17:35.132Z,3.43
2018-08-09T23:20:03.265Z,3.50
2018-08-09T23:22:31.412Z,3.70
2018-08-09T23:24:59.914Z,4.20
2018-08-09T23:27:28.291Z,3.83
2018-08-09T23:29:56.751Z,4.50
2018-08-09T23:32:24.908Z,5.13
2018-08-09T23:34:53.334Z,4.33
2018-08-09T23:37:21.703Z,4.47
2018-08-09T23:39:50.344Z,3.80
2018-08-09T23:42:19.038Z,4.60
2018-08-09T23:44:47.456Z,4.33
2018-08-09T23:47:15.756Z,3.33
2018-08-09T23:49:44.202Z,2.50
2018-08-09T23:52:12.352Z,2.60
2018-08-09T23:54:40.480Z,2.17
2018-08-09T23:57:09.197Z,2.40
2018-08-09T23:59:37.650Z,1.70
